sensor_id;sensor_type;location;lat;lon;timestamp;temperature;humidity
31387;DHT22;18017;50.124;8.688;2022-10-16T00:00:23;15.90;99.90
31387;DHT22;18017;50.124;8.688;2022-10-16T00:02:48;15.90;99.90
31387;DHT22;18017;50.124;8.688;2022-10-16T00:05:14;15.90;99.90
31387;DHT22;18017;50.124;8.688;2022-10-16T00:07:39;15.90;99.90
31387;DHT22;18017;50.124;8.688;2022-10-16T00:10:05;15.90;99.90
31387;DHT22;18017;50.124;8.688;2022-10-16T00:12:31;15.90;99.90
31387;DHT22;18017;50.124;8.688;2022-10-16T00:14:57;15.90;99.90
31387;DHT22;18017;50.124;8.688;2022-10-16T00:17:22;16.00;99.90
31387;DHT22;18017;50.124;8.688;2022-10-16T00:19:48;16.00;99.90
31387;DHT22;18017;50.124;8.688;2022-10-16T00:22:13;15.90;99.90
31387;DHT22;18017;50.124;8.688;2022-10-16T00:24:39;15.90;99.90
31387;DHT22;18017;50.124;8.688;2022-10-16T00:27:04;15.90;99.90
31387;DHT22;18017;50.124;8.688;2022-10-16T00:29:30;16.00;99.90
31387;DHT22;18017;50.124;8.688;2022-10-16T00:31:55;16.00;99.90
31387;DHT22;18017;50.124;8.688;2022-10-16T00:34:21;16.00;99.90
31387;DHT22;18017;50.124;8.688;2022-10-16T00:36:46;16.00;99.90
31387;DHT22;18017;50.124;8.688;2022-10-16T00:39:12;16.00;99.90
31387;DHT22;18017;50.124;8.688;2022-10-16T00:41:37;16.00;99.90
31387;DHT22;18017;50.124;8.688;2022-10-16T00:47:09;16.00;99.90
31387;DHT22;18017;50.124;8.688;2022-10-16T00:49:36;16.10;99.90
31387;DHT22;18017;50.124;8.688;2022-10-16T00:52:02;16.10;99.90
31387;DHT22;18017;50.124;8.688;2022-10-16T00:54:29;16.00;99.90
31387;DHT22;18017;50.124;8.688;2022-10-16T00:57:00;16.00;99.90
31387;DHT22;18017;50.124;8.688;2022-10-16T01:01:54;16.00;99.90
31387;DHT22;18017;50.124;8.688;2022-10-16T01:04:21;16.00;99.90
31387;DHT22;18017;50.124;8.688;2022-10-16T01:06:52;16.00;99.90
31387;DHT22;18017;50.124;8.688;2022-10-16T01:09:26;16.00;99.90
31387;DHT22;18017;50.124;8.688;2022-10-16T01:12:10;16.00;99.90
31387;DHT22;18017;50.124;8.688;2022-10-16T01:14:59;16.00;99.90
31387;DHT22;18017;50.124;8.688;2022-10-16T01:20:33;16.10;99.90
31387;DHT22;18017;50.124;8.688;2022-10-16T01:28:41;16.00;99.90
31387;DHT22;18017;50.124;8.688;2022-10-16T01:31:09;16.00;99.90
31387;DHT22;18017;50.124;8.688;2022-10-16T01:33:42;16.10;99.90
31387;DHT22;18017;50.124;8.688;2022-10-16T01:36:13;16.10;99.90
31387;DHT22;18017;50.124;8.688;2022-10-16T01:38:40;16.10;99.90
31387;DHT22;18017;50.124;8.688;2022-10-16T01:41:15;16.10;99.90
31387;DHT22;18017;50.124;8.688;2022-10-16T01:43:53;16.10;99.90
31387;DHT22;18017;50.124;8.688;2022-10-16T01:46:21;16.00;99.90
31387;DHT22;18017;50.124;8.688;2022-10-16T01:48:49;16.00;99.90
31387;DHT22;18017;50.124;8.688;2022-10-16T01:51:17;16.10;99.90
31387;DHT22;18017;50.124;8.688;2022-10-16T01:53:47;16.00;99.90
31387;DHT22;18017;50.124;8.688;2022-10-16T01:56:15;16.00;99.90
31387;DHT22;18017;50.124;8.688;2022-10-16T01:58:53;15.90;99.90
31387;DHT22;18017;50.124;8.688;2022-10-16T02:01:22;15.90;99.90
31387;DHT22;18017;50.124;8.688;2022-10-16T02:03:52;15.90;99.90
31387;DHT22;18017;50.124;8.688;2022-10-16T02:06:19;15.90;99.90
31387;DHT22;18017;50.124;8.688;2022-10-16T02:08:45;15.90;99.90
31387;DHT22;18017;50.124;8.688;2022-10-16T02:11:11;15.90;99.90
31387;DHT22;18017;50.124;8.688;2022-10-16T02:13:58;15.90;99.90
31387;DHT22;18017;50.124;8.688;2022-10-16T02:16:37;15.90;99.90
31387;DHT22;18017;50.124;8.688;2022-10-16T02:19:04;15.90;99.90
31387;DHT22;18017;50.124;8.688;2022-10-16T02:27:22;15.90;99.90
31387;DHT22;18017;50.124;8.688;2022-10-16T02:29:55;15.90;99.90
31387;DHT22;18017;50.124;8.688;2022-10-16T02:32:26;15.90;99.90
31387;DHT22;18017;50.124;8.688;2022-10-16T02:34:53;15.80;99.90
31387;DHT22;18017;50.124;8.688;2022-10-16T02:37:19;15.80;99.90
31387;DHT22;18017;50.124;8.688;2022-10-16T02:39:45;15.90;99.90
31387;DHT22;18017;50.124;8.688;2022-10-16T02:42:15;15.80;99.90
31387;DHT22;18017;50.124;8.688;2022-10-16T02:44:42;15.80;99.90
31387;DHT22;18017;50.124;8.688;2022-10-16T02:47:08;15.80;99.90
31387;DHT22;18017;50.124;8.688;2022-10-16T02:49:33;15.80;99.90
31387;DHT22;18017;50.124;8.688;2022-10-16T02:51:59;15.80;99.90
31387;DHT22;18017;50.124;8.688;2022-10-16T02:54:24;15.80;99.90
31387;DHT22;18017;50.124;8.688;2022-10-16T02:56:50;15.80;99.90
31387;DHT22;18017;50.124;8.688;2022-10-16T02:59:16;15.80;99.90
31387;DHT22;18017;50.124;8.688;2022-10-16T03:01:41;15.80;99.90
31387;DHT22;18017;50.124;8.688;2022-10-16T03:04:07;15.80;99.90
31387;DHT22;18017;50.124;8.688;2022-10-16T03:06:32;15.80;99.90
31387;DHT22;18017;50.124;8.688;2022-10-16T03:08:58;15.70;99.90
31387;DHT22;18017;50.124;8.688;2022-10-16T03:11:24;15.70;99.90
31387;DHT22;18017;50.124;8.688;2022-10-16T03:13:49;15.70;99.90
31387;DHT22;18017;50.124;8.688;2022-10-16T03:16:15;15.70;99.90
31387;DHT22;18017;50.124;8.688;2022-10-16T03:18:40;15.70;99.90
31387;DHT22;18017;50.124;8.688;2022-10-16T03:21:06;15.60;99.90
31387;DHT22;18017;50.124;8.688;2022-10-16T03:23:31;15.70;99.90
31387;DHT22;18017;50.124;8.688;2022-10-16T03:25:57;15.70;99.90
31387;DHT22;18017;50.124;8.688;2022-10-16T03:28:23;15.70;99.90
31387;DHT22;18017;50.124;8.688;2022-10-16T03:30:48;15.70;99.90
31387;DHT22;18017;50.124;8.688;2022-10-16T03:33:14;15.70;99.90
31387;DHT22;18017;50.124;8.688;2022-10-16T03:35:39;15.70;99.90
31387;DHT22;18017;50.124;8.688;2022-10-16T03:38:05;15.70;99.90
31387;DHT22;18017;50.124;8.688;2022-10-16T03:40:30;15.70;99.90
31387;DHT22;18017;50.124;8.688;2022-10-16T03:42:57;15.70;99.90
31387;DHT22;18017;50.124;8.688;2022-10-16T03:45:24;15.70;99.90
31387;DHT22;18017;50.124;8.688;2022-10-16T03:47:49;15.70;99.90
31387;DHT22;18017;50.124;8.688;2022-10-16T03:50:15;15.70;99.90
31387;DHT22;18017;50.124;8.688;2022-10-16T03:52:41;15.70;99.90
31387;DHT22;18017;50.124;8.688;2022-10-16T03:55:09;15.70;99.90
31387;DHT22;18017;50.124;8.688;2022-10-16T03:57:35;15.70;99.90
31387;DHT22;18017;50.124;8.688;2022-10-16T04:00:00;15.70;99.90
31387;DHT22;18017;50.124;8.688;2022-10-16T04:02:26;15.70;99.90
31387;DHT22;18017;50.124;8.688;2022-10-16T04:04:51;15.70;99.90
31387;DHT22;18017;50.124;8.688;2022-10-16T04:07:17;15.70;99.90
31387;DHT22;18017;50.124;8.688;2022-10-16T04:09:43;15.70;99.90
31387;DHT22;18017;50.124;8.688;2022-10-16T04:12:09;15.80;99.90
31387;DHT22;18017;50.124;8.688;2022-10-16T04:14:34;15.80;99.90
31387;DHT22;18017;50.124;8.688;2022-10-16T04:17:00;15.80;99.90
31387;DHT22;18017;50.124;8.688;2022-10-16T04:19:25;15.70;99.90
31387;DHT22;18017;50.124;8.688;2022-10-16T04:21:51;15.70;99.90
31387;DHT22;18017;50.124;8.688;2022-10-16T04:24:17;15.70;99.90
31387;DHT22;18017;50.124;8.688;2022-10-16T04:26:42;15.70;99.90
31387;DHT22;18017;50.124;8.688;2022-10-16T04:29:08;15.70;99.90
31387;DHT22;18017;50.124;8.688;2022-10-16T04:31:33;15.70;99.90
31387;DHT22;18017;50.124;8.688;2022-10-16T04:33:59;15.80;99.90
31387;DHT22;18017;50.124;8.688;2022-10-16T04:36:25;15.80;99.90
31387;DHT22;18017;50.124;8.688;2022-10-16T04:38:50;15.80;99.90
31387;DHT22;18017;50.124;8.688;2022-10-16T04:41:16;15.80;99.90
31387;DHT22;18017;50.124;8.688;2022-10-16T04:43:41;15.80;99.90
31387;DHT22;18017;50.124;8.688;2022-10-16T04:46:07;15.80;99.90
31387;DHT22;18017;50.124;8.688;2022-10-16T04:48:32;15.70;99.90
31387;DHT22;18017;50.124;8.688;2022-10-16T04:50:58;15.70;99.90
31387;DHT22;18017;50.124;8.688;2022-10-16T04:53:24;15.80;99.90
31387;DHT22;18017;50.124;8.688;2022-10-16T04:55:50;15.80;99.90
31387;DHT22;18017;50.124;8.688;2022-10-16T04:58:16;15.80;99.90
31387;DHT22;18017;50.124;8.688;2022-10-16T05:00:42;15.80;99.90
31387;DHT22;18017;50.124;8.688;2022-10-16T05:03:07;15.80;99.90
31387;DHT22;18017;50.124;8.688;2022-10-16T05:05:35;15.70;99.90
31387;DHT22;18017;50.124;8.688;2022-10-16T05:08:00;15.80;99.90
31387;DHT22;18017;50.124;8.688;2022-10-16T05:10:26;15.80;99.90
31387;DHT22;18017;50.124;8.688;2022-10-16T05:12:52;15.70;99.90
31387;DHT22;18017;50.124;8.688;2022-10-16T05:15:17;15.80;99.90
31387;DHT22;18017;50.124;8.688;2022-10-16T05:17:43;15.70;99.90
31387;DHT22;18017;50.124;8.688;2022-10-16T05:20:09;15.70;99.90
31387;DHT22;18017;50.124;8.688;2022-10-16T05:22:35;15.80;99.90
31387;DHT22;18017;50.124;8.688;2022-10-16T05:25:00;15.80;99.90
31387;DHT22;18017;50.124;8.688;2022-10-16T05:27:26;15.80;99.90
31387;DHT22;18017;50.124;8.688;2022-10-16T05:29:51;15.80;99.90
31387;DHT22;18017;50.124;8.688;2022-10-16T05:32:18;15.80;99.90
31387;DHT22;18017;50.124;8.688;2022-10-16T05:34:44;15.80;99.90
31387;DHT22;18017;50.124;8.688;2022-10-16T05:37:11;15.90;99.90
31387;DHT22;18017;50.124;8.688;2022-10-16T05:39:37;15.90;99.90
31387;DHT22;18017;50.124;8.688;2022-10-16T05:42:03;15.90;99.90
31387;DHT22;18017;50.124;8.688;2022-10-16T05:44:29;15.90;99.90
31387;DHT22;18017;50.124;8.688;2022-10-16T05:46:54;15.80;99.90
31387;DHT22;18017;50.124;8.688;2022-10-16T05:49:20;15.70;99.90
31387;DHT22;18017;50.124;8.688;2022-10-16T05:51:46;15.70;99.90
31387;DHT22;18017;50.124;8.688;2022-10-16T05:54:11;15.70;99.90
31387;DHT22;18017;50.124;8.688;2022-10-16T05:56:37;15.70;99.90
31387;DHT22;18017;50.124;8.688;2022-10-16T05:59:05;15.70;99.90
31387;DHT22;18017;50.124;8.688;2022-10-16T06:01:31;15.80;99.90
31387;DHT22;18017;50.124;8.688;2022-10-16T06:03:57;15.80;99.90
31387;DHT22;18017;50.124;8.688;2022-10-16T06:06:26;15.80;99.90
31387;DHT22;18017;50.124;8.688;2022-10-16T06:08:52;15.80;99.90
31387;DHT22;18017;50.124;8.688;2022-10-16T06:11:24;15.90;99.90
31387;DHT22;18017;50.124;8.688;2022-10-16T06:13:55;15.90;99.90
31387;DHT22;18017;50.124;8.688;2022-10-16T06:16:22;15.90;99.90
31387;DHT22;18017;50.124;8.688;2022-10-16T06:18:51;15.90;99.90
31387;DHT22;18017;50.124;8.688;2022-10-16T06:21:19;15.90;99.90
31387;DHT22;18017;50.124;8.688;2022-10-16T06:23:45;15.90;99.90
31387;DHT22;18017;50.124;8.688;2022-10-16T06:26:16;15.90;99.90
31387;DHT22;18017;50.124;8.688;2022-10-16T06:28:42;15.90;99.90
31387;DHT22;18017;50.124;8.688;2022-10-16T06:31:09;15.90;99.90
31387;DHT22;18017;50.124;8.688;2022-10-16T06:33:35;15.90;99.90
31387;DHT22;18017;50.124;8.688;2022-10-16T06:36:06;16.00;99.90
31387;DHT22;18017;50.124;8.688;2022-10-16T06:38:32;16.00;99.90
31387;DHT22;18017;50.124;8.688;2022-10-16T06:40:58;16.10;99.90
31387;DHT22;18017;50.124;8.688;2022-10-16T06:43:24;16.10;99.90
31387;DHT22;18017;50.124;8.688;2022-10-16T06:45:54;16.10;99.90
31387;DHT22;18017;50.124;8.688;2022-10-16T06:48:21;16.20;99.90
31387;DHT22;18017;50.124;8.688;2022-10-16T06:51:01;16.20;99.90
31387;DHT22;18017;50.124;8.688;2022-10-16T06:53:28;16.30;99.90
31387;DHT22;18017;50.124;8.688;2022-10-16T06:55:55;16.30;99.90
31387;DHT22;18017;50.124;8.688;2022-10-16T06:58:20;16.30;99.90
31387;DHT22;18017;50.124;8.688;2022-10-16T07:00:46;16.40;99.90
31387;DHT22;18017;50.124;8.688;2022-10-16T07:03:12;16.40;99.90
31387;DHT22;18017;50.124;8.688;2022-10-16T07:05:41;16.30;99.90
31387;DHT22;18017;50.124;8.688;2022-10-16T07:08:08;16.30;99.90
31387;DHT22;18017;50.124;8.688;2022-10-16T07:10:34;16.40;99.90
31387;DHT22;18017;50.124;8.688;2022-10-16T07:13:00;16.40;99.90
31387;DHT22;18017;50.124;8.688;2022-10-16T07:15:26;16.40;99.90
31387;DHT22;18017;50.124;8.688;2022-10-16T07:17:51;16.40;99.90
31387;DHT22;18017;50.124;8.688;2022-10-16T07:20:17;16.40;99.90
31387;DHT22;18017;50.124;8.688;2022-10-16T07:22:42;16.50;99.90
31387;DHT22;18017;50.124;8.688;2022-10-16T07:25:08;16.60;99.90
31387;DHT22;18017;50.124;8.688;2022-10-16T07:27:34;16.70;99.90
31387;DHT22;18017;50.124;8.688;2022-10-16T07:30:00;16.70;99.90
31387;DHT22;18017;50.124;8.688;2022-10-16T07:32:25;16.80;99.90
31387;DHT22;18017;50.124;8.688;2022-10-16T07:34:52;16.80;99.90
31387;DHT22;18017;50.124;8.688;2022-10-16T07:37:18;16.60;99.90
31387;DHT22;18017;50.124;8.688;2022-10-16T07:39:43;16.60;99.90
31387;DHT22;18017;50.124;8.688;2022-10-16T07:42:09;16.70;99.90
31387;DHT22;18017;50.124;8.688;2022-10-16T07:44:34;16.70;99.90
31387;DHT22;18017;50.124;8.688;2022-10-16T07:47:00;16.70;99.90
31387;DHT22;18017;50.124;8.688;2022-10-16T07:49:25;16.70;99.90
31387;DHT22;18017;50.124;8.688;2022-10-16T07:51:51;16.70;99.90
31387;DHT22;18017;50.124;8.688;2022-10-16T07:54:16;16.60;99.90
31387;DHT22;18017;50.124;8.688;2022-10-16T07:56:42;16.60;99.90
31387;DHT22;18017;50.124;8.688;2022-10-16T07:59:08;16.70;99.90
31387;DHT22;18017;50.124;8.688;2022-10-16T08:01:34;16.90;99.90
31387;DHT22;18017;50.124;8.688;2022-10-16T08:03:59;17.10;99.90
31387;DHT22;18017;50.124;8.688;2022-10-16T08:06:25;17.20;99.90
31387;DHT22;18017;50.124;8.688;2022-10-16T08:08:51;17.20;99.90
31387;DHT22;18017;50.124;8.688;2022-10-16T08:11:16;17.20;99.90
31387;DHT22;18017;50.124;8.688;2022-10-16T08:13:42;17.10;99.90
31387;DHT22;18017;50.124;8.688;2022-10-16T08:16:08;17.00;99.90
31387;DHT22;18017;50.124;8.688;2022-10-16T08:18:36;16.90;99.90
31387;DHT22;18017;50.124;8.688;2022-10-16T08:21:01;16.80;99.90
31387;DHT22;18017;50.124;8.688;2022-10-16T08:23:28;16.80;99.90
31387;DHT22;18017;50.124;8.688;2022-10-16T08:25:55;16.80;99.90
31387;DHT22;18017;50.124;8.688;2022-10-16T08:28:21;16.90;99.90
31387;DHT22;18017;50.124;8.688;2022-10-16T08:30:47;16.80;99.90
31387;DHT22;18017;50.124;8.688;2022-10-16T08:33:13;16.80;99.90
31387;DHT22;18017;50.124;8.688;2022-10-16T08:35:38;16.70;99.90
31387;DHT22;18017;50.124;8.688;2022-10-16T08:38:05;16.70;99.90
31387;DHT22;18017;50.124;8.688;2022-10-16T08:40:33;16.70;99.90
31387;DHT22;18017;50.124;8.688;2022-10-16T08:43:21;16.70;99.90
31387;DHT22;18017;50.124;8.688;2022-10-16T08:48:30;16.70;99.90
31387;DHT22;18017;50.124;8.688;2022-10-16T08:51:02;16.80;99.90
31387;DHT22;18017;50.124;8.688;2022-10-16T08:56:14;16.80;99.90
31387;DHT22;18017;50.124;8.688;2022-10-16T08:58:39;16.80;99.90
31387;DHT22;18017;50.124;8.688;2022-10-16T09:01:12;16.80;99.90
31387;DHT22;18017;50.124;8.688;2022-10-16T09:04:03;16.70;99.90
31387;DHT22;18017;50.124;8.688;2022-10-16T09:14:54;16.50;99.90
31387;DHT22;18017;50.124;8.688;2022-10-16T09:17:42;16.50;99.90
31387;DHT22;18017;50.124;8.688;2022-10-16T09:23:14;16.70;99.90
31387;DHT22;18017;50.124;8.688;2022-10-16T09:25:44;16.70;99.90
31387;DHT22;18017;50.124;8.688;2022-10-16T09:28:11;16.80;99.90
31387;DHT22;18017;50.124;8.688;2022-10-16T09:30:37;16.80;99.90
31387;DHT22;18017;50.124;8.688;2022-10-16T09:33:05;16.80;99.90
31387;DHT22;18017;50.124;8.688;2022-10-16T09:35:38;16.80;99.90
31387;DHT22;18017;50.124;8.688;2022-10-16T09:38:04;16.70;99.90
31387;DHT22;18017;50.124;8.688;2022-10-16T09:40:37;16.70;99.90
31387;DHT22;18017;50.124;8.688;2022-10-16T09:48:25;16.60;99.90
31387;DHT22;18017;50.124;8.688;2022-10-16T09:50:59;16.60;99.90
31387;DHT22;18017;50.124;8.688;2022-10-16T09:53:44;16.60;99.90
31387;DHT22;18017;50.124;8.688;2022-10-16T09:56:23;16.70;99.90
31387;DHT22;18017;50.124;8.688;2022-10-16T09:58:50;16.90;99.90
31387;DHT22;18017;50.124;8.688;2022-10-16T10:01:17;17.30;99.90
31387;DHT22;18017;50.124;8.688;2022-10-16T10:03:44;17.70;99.90
31387;DHT22;18017;50.124;8.688;2022-10-16T10:06:25;17.80;99.90
31387;DHT22;18017;50.124;8.688;2022-10-16T10:11:43;17.70;99.90
31387;DHT22;18017;50.124;8.688;2022-10-16T10:14:17;17.90;99.90
31387;DHT22;18017;50.124;8.688;2022-10-16T10:16:43;18.30;99.90
31387;DHT22;18017;50.124;8.688;2022-10-16T10:19:23;19.00;99.90
31387;DHT22;18017;50.124;8.688;2022-10-16T10:21:50;19.90;99.90
31387;DHT22;18017;50.124;8.688;2022-10-16T10:24:19;20.70;99.90
31387;DHT22;18017;50.124;8.688;2022-10-16T10:27:09;21.60;99.90
31387;DHT22;18017;50.124;8.688;2022-10-16T10:29:52;23.40;99.90
31387;DHT22;18017;50.124;8.688;2022-10-16T10:32:30;24.70;99.90
31387;DHT22;18017;50.124;8.688;2022-10-16T10:35:17;24.20;99.90
31387;DHT22;18017;50.124;8.688;2022-10-16T10:40:34;22.70;99.90
31387;DHT22;18017;50.124;8.688;2022-10-16T10:46:04;22.20;99.90
31387;DHT22;18017;50.124;8.688;2022-10-16T10:54:52;22.80;99.90
31387;DHT22;18017;50.124;8.688;2022-10-16T10:57:28;22.90;99.90
31387;DHT22;18017;50.124;8.688;2022-10-16T11:02:40;28.60;99.90
31387;DHT22;18017;50.124;8.688;2022-10-16T11:06:08;29.50;99.90
31387;DHT22;18017;50.124;8.688;2022-10-16T11:10:53;28.30;99.90
31387;DHT22;18017;50.124;8.688;2022-10-16T11:13:24;29.50;99.90
31387;DHT22;18017;50.124;8.688;2022-10-16T11:15:57;31.40;99.90
31387;DHT22;18017;50.124;8.688;2022-10-16T11:18:32;32.70;99.90
31387;DHT22;18017;50.124;8.688;2022-10-16T11:21:10;32.50;99.90
31387;DHT22;18017;50.124;8.688;2022-10-16T11:26:46;32.90;99.90
31387;DHT22;18017;50.124;8.688;2022-10-16T11:29:19;29.60;99.90
31387;DHT22;18017;50.124;8.688;2022-10-16T11:31:55;27.70;99.90
31387;DHT22;18017;50.124;8.688;2022-10-16T11:34:28;27.30;99.90
31387;DHT22;18017;50.124;8.688;2022-10-16T11:37:04;26.30;99.90
31387;DHT22;18017;50.124;8.688;2022-10-16T11:39:31;25.10;99.90
31387;DHT22;18017;50.124;8.688;2022-10-16T11:42:03;23.70;99.90
31387;DHT22;18017;50.124;8.688;2022-10-16T11:44:34;22.50;99.90
31387;DHT22;18017;50.124;8.688;2022-10-16T11:47:26;21.70;99.90
31387;DHT22;18017;50.124;8.688;2022-10-16T11:50:02;21.10;99.90
31387;DHT22;18017;50.124;8.688;2022-10-16T11:55:24;20.60;99.90
31387;DHT22;18017;50.124;8.688;2022-10-16T11:57:56;20.90;99.90
31387;DHT22;18017;50.124;8.688;2022-10-16T12:03:19;22.40;99.90
31387;DHT22;18017;50.124;8.688;2022-10-16T12:08:17;28.00;99.90
31387;DHT22;18017;50.124;8.688;2022-10-16T12:10:45;29.90;99.90
31387;DHT22;18017;50.124;8.688;2022-10-16T12:13:34;30.60;99.90
31387;DHT22;18017;50.124;8.688;2022-10-16T12:16:26;31.30;99.90
31387;DHT22;18017;50.124;8.688;2022-10-16T12:19:24;31.70;99.90
31387;DHT22;18017;50.124;8.688;2022-10-16T12:21:50;30.70;99.90
31387;DHT22;18017;50.124;8.688;2022-10-16T12:26:52;33.20;99.90
31387;DHT22;18017;50.124;8.688;2022-10-16T12:29:32;33.40;99.90
31387;DHT22;18017;50.124;8.688;2022-10-16T12:31:58;31.30;99.90
31387;DHT22;18017;50.124;8.688;2022-10-16T12:34:39;31.70;99.90
31387;DHT22;18017;50.124;8.688;2022-10-16T12:37:35;32.20;99.90
31387;DHT22;18017;50.124;8.688;2022-10-16T12:40:36;33.10;99.90
31387;DHT22;18017;50.124;8.688;2022-10-16T12:43:13;31.90;99.90
31387;DHT22;18017;50.124;8.688;2022-10-16T12:46:44;29.50;99.90
31387;DHT22;18017;50.124;8.688;2022-10-16T12:48:44;27.80;99.90
31387;DHT22;18017;50.124;8.688;2022-10-16T12:51:12;27.10;99.90
31387;DHT22;18017;50.124;8.688;2022-10-16T12:53:46;26.50;99.90
31387;DHT22;18017;50.124;8.688;2022-10-16T12:56:24;25.70;99.90
31387;DHT22;18017;50.124;8.688;2022-10-16T12:59:03;26.00;99.90
31387;DHT22;18017;50.124;8.688;2022-10-16T13:04:47;27.10;99.90
31387;DHT22;18017;50.124;8.688;2022-10-16T13:10:03;25.80;99.90
31387;DHT22;18017;50.124;8.688;2022-10-16T13:13:00;26.40;99.90
31387;DHT22;18017;50.124;8.688;2022-10-16T13:21:24;25.40;99.90
31387;DHT22;18017;50.124;8.688;2022-10-16T13:24:13;24.80;99.90
31387;DHT22;18017;50.124;8.688;2022-10-16T13:26:55;24.20;99.90
31387;DHT22;18017;50.124;8.688;2022-10-16T13:29:22;23.60;99.90
31387;DHT22;18017;50.124;8.688;2022-10-16T13:31:48;23.20;99.90
31387;DHT22;18017;50.124;8.688;2022-10-16T13:34:20;23.10;99.90
31387;DHT22;18017;50.124;8.688;2022-10-16T13:36:48;22.90;99.90
31387;DHT22;18017;50.124;8.688;2022-10-16T13:39:25;23.00;99.90
31387;DHT22;18017;50.124;8.688;2022-10-16T13:44:45;23.30;99.90
31387;DHT22;18017;50.124;8.688;2022-10-16T13:47:21;24.10;99.90
31387;DHT22;18017;50.124;8.688;2022-10-16T13:50:03;24.10;99.90
31387;DHT22;18017;50.124;8.688;2022-10-16T13:52:30;23.70;99.90
31387;DHT22;18017;50.124;8.688;2022-10-16T13:54:56;23.30;99.90
31387;DHT22;18017;50.124;8.688;2022-10-16T13:57:23;23.00;99.90
31387;DHT22;18017;50.124;8.688;2022-10-16T13:59:50;22.90;99.90
31387;DHT22;18017;50.124;8.688;2022-10-16T14:02:33;22.70;99.90
31387;DHT22;18017;50.124;8.688;2022-10-16T14:05:02;22.70;99.90
31387;DHT22;18017;50.124;8.688;2022-10-16T14:07:31;22.40;99.90
31387;DHT22;18017;50.124;8.688;2022-10-16T14:10:01;22.20;99.90
31387;DHT22;18017;50.124;8.688;2022-10-16T14:12:27;22.00;99.90
31387;DHT22;18017;50.124;8.688;2022-10-16T14:14:54;21.80;99.90
31387;DHT22;18017;50.124;8.688;2022-10-16T14:17:31;21.60;99.90
31387;DHT22;18017;50.124;8.688;2022-10-16T14:20:00;21.50;99.90
31387;DHT22;18017;50.124;8.688;2022-10-16T14:22:37;21.20;99.90
31387;DHT22;18017;50.124;8.688;2022-10-16T14:25:27;21.10;99.90
31387;DHT22;18017;50.124;8.688;2022-10-16T14:30:27;21.00;99.90
31387;DHT22;18017;50.124;8.688;2022-10-16T14:33:04;21.00;99.90
31387;DHT22;18017;50.124;8.688;2022-10-16T14:38:00;21.00;99.90
31387;DHT22;18017;50.124;8.688;2022-10-16T14:40:32;21.10;99.90
31387;DHT22;18017;50.124;8.688;2022-10-16T14:42:59;21.20;99.90
31387;DHT22;18017;50.124;8.688;2022-10-16T14:45:29;21.20;99.90
31387;DHT22;18017;50.124;8.688;2022-10-16T14:47:57;21.40;99.90
31387;DHT22;18017;50.124;8.688;2022-10-16T14:50:24;21.40;99.90
31387;DHT22;18017;50.124;8.688;2022-10-16T14:52:50;21.50;99.90
31387;DHT22;18017;50.124;8.688;2022-10-16T14:55:16;21.50;99.90
31387;DHT22;18017;50.124;8.688;2022-10-16T14:57:43;21.40;99.90
31387;DHT22;18017;50.124;8.688;2022-10-16T15:00:23;21.20;99.90
31387;DHT22;18017;50.124;8.688;2022-10-16T15:02:50;21.10;99.90
31387;DHT22;18017;50.124;8.688;2022-10-16T15:07:44;21.00;99.90
31387;DHT22;18017;50.124;8.688;2022-10-16T15:10:11;20.90;99.90
31387;DHT22;18017;50.124;8.688;2022-10-16T15:12:37;21.00;99.90
31387;DHT22;18017;50.124;8.688;2022-10-16T15:17:55;21.60;99.90
31387;DHT22;18017;50.124;8.688;2022-10-16T15:20:27;21.60;99.90
31387;DHT22;18017;50.124;8.688;2022-10-16T15:22:52;21.40;99.90
31387;DHT22;18017;50.124;8.688;2022-10-16T15:25:46;21.30;99.90
31387;DHT22;18017;50.124;8.688;2022-10-16T15:28:13;21.20;99.90
31387;DHT22;18017;50.124;8.688;2022-10-16T15:30:39;21.10;99.90
31387;DHT22;18017;50.124;8.688;2022-10-16T15:33:11;20.90;99.90
31387;DHT22;18017;50.124;8.688;2022-10-16T15:35:37;20.80;99.90
31387;DHT22;18017;50.124;8.688;2022-10-16T15:38:03;20.80;99.90
31387;DHT22;18017;50.124;8.688;2022-10-16T15:40:28;20.80;99.90
31387;DHT22;18017;50.124;8.688;2022-10-16T15:42:54;20.70;99.90
31387;DHT22;18017;50.124;8.688;2022-10-16T15:45:20;20.60;99.90
31387;DHT22;18017;50.124;8.688;2022-10-16T15:47:46;20.60;99.90
31387;DHT22;18017;50.124;8.688;2022-10-16T15:50:13;20.50;99.90
31387;DHT22;18017;50.124;8.688;2022-10-16T15:52:40;20.40;99.90
31387;DHT22;18017;50.124;8.688;2022-10-16T15:55:11;20.40;99.90
31387;DHT22;18017;50.124;8.688;2022-10-16T15:57:37;20.40;99.90
31387;DHT22;18017;50.124;8.688;2022-10-16T16:00:06;20.40;99.90
31387;DHT22;18017;50.124;8.688;2022-10-16T16:02:36;20.30;99.90
31387;DHT22;18017;50.124;8.688;2022-10-16T16:05:02;20.20;99.90
31387;DHT22;18017;50.124;8.688;2022-10-16T16:07:28;20.20;99.90
31387;DHT22;18017;50.124;8.688;2022-10-16T16:09:53;20.10;99.90
31387;DHT22;18017;50.124;8.688;2022-10-16T16:12:19;20.00;99.90
31387;DHT22;18017;50.124;8.688;2022-10-16T16:14:45;20.00;99.90
31387;DHT22;18017;50.124;8.688;2022-10-16T16:17:13;20.10;99.90
31387;DHT22;18017;50.124;8.688;2022-10-16T16:19:39;20.00;99.90
31387;DHT22;18017;50.124;8.688;2022-10-16T16:22:07;19.80;99.90
31387;DHT22;18017;50.124;8.688;2022-10-16T16:24:33;19.80;99.90
31387;DHT22;18017;50.124;8.688;2022-10-16T16:26:58;19.70;99.90
31387;DHT22;18017;50.124;8.688;2022-10-16T16:29:24;19.60;99.90
31387;DHT22;18017;50.124;8.688;2022-10-16T16:31:50;19.60;99.90
31387;DHT22;18017;50.124;8.688;2022-10-16T16:34:15;19.50;99.90
31387;DHT22;18017;50.124;8.688;2022-10-16T16:36:41;19.50;99.90
31387;DHT22;18017;50.124;8.688;2022-10-16T16:39:07;19.50;99.90
31387;DHT22;18017;50.124;8.688;2022-10-16T16:41:33;19.40;99.90
31387;DHT22;18017;50.124;8.688;2022-10-16T16:44:04;19.30;99.90
31387;DHT22;18017;50.124;8.688;2022-10-16T16:46:31;19.30;99.90
31387;DHT22;18017;50.124;8.688;2022-10-16T16:48:58;19.30;99.90
31387;DHT22;18017;50.124;8.688;2022-10-16T16:51:24;19.30;99.90
31387;DHT22;18017;50.124;8.688;2022-10-16T16:53:52;19.20;99.90
31387;DHT22;18017;50.124;8.688;2022-10-16T16:56:19;19.20;99.90
31387;DHT22;18017;50.124;8.688;2022-10-16T16:58:45;19.10;99.90
31387;DHT22;18017;50.124;8.688;2022-10-16T17:01:11;19.10;99.90
31387;DHT22;18017;50.124;8.688;2022-10-16T17:03:37;19.10;99.90
31387;DHT22;18017;50.124;8.688;2022-10-16T17:06:07;19.10;99.90
31387;DHT22;18017;50.124;8.688;2022-10-16T17:08:36;19.00;99.90
31387;DHT22;18017;50.124;8.688;2022-10-16T17:11:03;19.00;99.90
31387;DHT22;18017;50.124;8.688;2022-10-16T17:13:30;19.00;99.90
31387;DHT22;18017;50.124;8.688;2022-10-16T17:15:57;19.00;99.90
31387;DHT22;18017;50.124;8.688;2022-10-16T17:18:23;18.90;99.90
31387;DHT22;18017;50.124;8.688;2022-10-16T17:20:50;18.90;99.90
31387;DHT22;18017;50.124;8.688;2022-10-16T17:23:17;18.90;99.90